sensor_id;sensor_type;location;lat;lon;timestamp;pressure;altitude;pressure_sealevel;temperature;humidity
18988;BME280;5494;51.796;10.952;2023-02-02T00:01:26;98707.97;;;4.58;88.51
18988;BME280;5494;51.796;10.952;2023-02-02T00:03:54;98704.72;;;4.53;88.94
18988;BME280;5494;51.796;10.952;2023-02-02T00:06:27;98696.06;;;4.55;88.38
18988;BME280;5494;51.796;10.952;2023-02-02T00:08:57;98683.28;;;4.52;88.50
18988;BME280;5494;51.796;10.952;2023-02-02T00:11:27;98682.34;;;4.55;87.86
18988;BME280;5494;51.796;10.952;2023-02-02T00:13:55;98674.59;;;4.56;87.19
18988;BME280;5494;51.796;10.952;2023-02-02T00:16:39;98675.47;;;4.55;87.08
18988;BME280;5494;51.796;10.952;2023-02-02T00:19:11;98686.66;;;4.54;87.24
18988;BME280;5494;51.796;10.952;2023-02-02T00:21:39;98680.63;;;4.55;86.33
18988;BME280;5494;51.796;10.952;2023-02-02T00:24:09;98672.13;;;4.52;86.77
18988;BME280;5494;51.796;10.952;2023-02-02T00:26:41;98677.19;;;4.55;86.47
18988;BME280;5494;51.796;10.952;2023-02-02T00:29:14;98678.16;;;4.51;85.41
18988;BME280;5494;51.796;10.952;2023-02-02T00:31:43;98683.97;;;4.57;85.66
18988;BME280;5494;51.796;10.952;2023-02-02T00:34:12;98695.34;;;4.50;86.06
18988;BME280;5494;51.796;10.952;2023-02-02T00:36:41;98678.78;;;4.59;86.26
18988;BME280;5494;51.796;10.952;2023-02-02T00:39:13;98701.25;;;4.54;85.50
18988;BME280;5494;51.796;10.952;2023-02-02T00:41:42;98701.97;;;4.57;84.93
18988;BME280;5494;51.796;10.952;2023-02-02T00:44:10;98693.38;;;4.58;84.55
18988;BME280;5494;51.796;10.952;2023-02-02T00:46:56;98690.84;;;4.57;85.58
18988;BME280;5494;51.796;10.952;2023-02-02T00:49:24;98708.78;;;4.60;86.16
18988;BME280;5494;51.796;10.952;2023-02-02T00:51:52;98697.00;;;4.53;86.84
18988;BME280;5494;51.796;10.952;2023-02-02T00:54:20;98702.09;;;4.54;86.47
18988;BME280;5494;51.796;10.952;2023-02-02T00:56:50;98711.53;;;4.54;86.69
18988;BME280;5494;51.796;10.952;2023-02-02T00:59:18;98706.34;;;4.55;86.67
18988;BME280;5494;51.796;10.952;2023-02-02T01:01:45;98710.84;;;4.49;86.99
18988;BME280;5494;51.796;10.952;2023-02-02T01:04:13;98707.47;;;4.47;86.85
18988;BME280;5494;51.796;10.952;2023-02-02T01:06:41;98711.75;;;4.48;86.46
18988;BME280;5494;51.796;10.952;2023-02-02T01:09:10;98728.06;;;4.47;87.26
18988;BME280;5494;51.796;10.952;2023-02-02T01:11:40;98695.25;;;4.53;86.86
18988;BME280;5494;51.796;10.952;2023-02-02T01:14:09;98724.56;;;4.49;87.59
18988;BME280;5494;51.796;10.952;2023-02-02T01:16:37;98703.22;;;4.46;87.69
18988;BME280;5494;51.796;10.952;2023-02-02T01:19:05;98724.50;;;4.51;87.30
18988;BME280;5494;51.796;10.952;2023-02-02T01:21:34;98722.69;;;4.54;87.58
18988;BME280;5494;51.796;10.952;2023-02-02T01:24:02;98727.19;;;4.48;88.38
18988;BME280;5494;51.796;10.952;2023-02-02T01:26:30;98731.28;;;4.53;87.83
18988;BME280;5494;51.796;10.952;2023-02-02T01:28:58;98728.72;;;4.53;88.12
18988;BME280;5494;51.796;10.952;2023-02-02T01:31:27;98719.41;;;4.49;87.41
18988;BME280;5494;51.796;10.952;2023-02-02T01:33:56;98736.41;;;4.55;87.79
18988;BME280;5494;51.796;10.952;2023-02-02T01:36:24;98718.34;;;4.56;88.12
18988;BME280;5494;51.796;10.952;2023-02-02T01:38:52;98726.84;;;4.58;87.62
18988;BME280;5494;51.796;10.952;2023-02-02T01:41:23;98721.69;;;4.58;86.26
18988;BME280;5494;51.796;10.952;2023-02-02T01:43:58;98735.16;;;4.66;85.83
18988;BME280;5494;51.796;10.952;2023-02-02T01:46:30;98733.44;;;4.67;86.66
18988;BME280;5494;51.796;10.952;2023-02-02T01:49:05;98743.38;;;4.78;85.10
18988;BME280;5494;51.796;10.952;2023-02-02T01:51:41;98720.53;;;4.68;85.77
18988;BME280;5494;51.796;10.952;2023-02-02T01:54:14;98755.81;;;4.65;85.97
18988;BME280;5494;51.796;10.952;2023-02-02T01:56:50;98733.69;;;4.59;87.59
18988;BME280;5494;51.796;10.952;2023-02-02T01:59:21;98753.28;;;4.63;87.82
18988;BME280;5494;51.796;10.952;2023-02-02T02:01:51;98758.41;;;4.63;88.61
18988;BME280;5494;51.796;10.952;2023-02-02T02:04:23;98768.16;;;4.54;89.78
18988;BME280;5494;51.796;10.952;2023-02-02T02:06:52;98775.09;;;4.52;89.56
18988;BME280;5494;51.796;10.952;2023-02-02T02:09:21;98775.88;;;4.54;89.68
18988;BME280;5494;51.796;10.952;2023-02-02T02:11:52;98777.66;;;4.52;90.23
18988;BME280;5494;51.796;10.952;2023-02-02T02:14:22;98779.19;;;4.57;90.11
18988;BME280;5494;51.796;10.952;2023-02-02T02:17:28;98784.47;;;4.54;91.03
18988;BME280;5494;51.796;10.952;2023-02-02T02:20:38;98758.72;;;4.54;90.94
18988;BME280;5494;51.796;10.952;2023-02-02T02:24:29;98781.97;;;4.51;90.58
18988;BME280;5494;51.796;10.952;2023-02-02T02:28:16;98777.69;;;4.50;89.56
18988;BME280;5494;51.796;10.952;2023-02-02T02:34:39;98781.03;;;4.54;87.39
18988;BME280;5494;51.796;10.952;2023-02-02T02:37:18;98787.09;;;4.51;86.62
18988;BME280;5494;51.796;10.952;2023-02-02T02:39:56;98793.13;;;4.50;87.00
18988;BME280;5494;51.796;10.952;2023-02-02T02:42:38;98769.84;;;4.55;86.08
18988;BME280;5494;51.796;10.952;2023-02-02T02:45:10;98785.25;;;4.56;85.62
18988;BME280;5494;51.796;10.952;2023-02-02T02:47:41;98775.75;;;4.58;85.14
18988;BME280;5494;51.796;10.952;2023-02-02T02:50:11;98780.88;;;4.58;85.90
18988;BME280;5494;51.796;10.952;2023-02-02T02:52:42;98802.03;;;4.69;84.35
18988;BME280;5494;51.796;10.952;2023-02-02T02:55:15;98795.88;;;4.73;84.33
18988;BME280;5494;51.796;10.952;2023-02-02T02:58:01;98815.47;;;4.78;84.22
18988;BME280;5494;51.796;10.952;2023-02-02T03:00:46;98804.22;;;4.82;83.98
18988;BME280;5494;51.796;10.952;2023-02-02T03:03:28;98812.69;;;4.85;83.44
18988;BME280;5494;51.796;10.952;2023-02-02T03:06:07;98803.34;;;4.83;84.53
18988;BME280;5494;51.796;10.952;2023-02-02T03:08:42;98814.41;;;4.85;85.03
18988;BME280;5494;51.796;10.952;2023-02-02T03:11:14;98821.22;;;4.87;84.95
18988;BME280;5494;51.796;10.952;2023-02-02T03:13:43;98808.13;;;4.93;85.16
18988;BME280;5494;51.796;10.952;2023-02-02T03:16:14;98824.25;;;5.00;85.79
18988;BME280;5494;51.796;10.952;2023-02-02T03:18:43;98818.25;;;4.99;85.58
18988;BME280;5494;51.796;10.952;2023-02-02T03:21:12;98820.75;;;5.02;85.73
18988;BME280;5494;51.796;10.952;2023-02-02T03:23:40;98805.59;;;4.92;87.54
18988;BME280;5494;51.796;10.952;2023-02-02T03:26:08;98815.97;;;4.90;88.21
18988;BME280;5494;51.796;10.952;2023-02-02T03:28:37;98818.31;;;4.98;88.22
18988;BME280;5494;51.796;10.952;2023-02-02T03:31:05;98833.09;;;4.91;88.12
18988;BME280;5494;51.796;10.952;2023-02-02T03:33:36;98793.69;;;5.42;87.29
18988;BME280;5494;51.796;10.952;2023-02-02T03:36:05;98833.66;;;5.55;85.12
18988;BME280;5494;51.796;10.952;2023-02-02T03:38:35;98829.50;;;5.51;85.43
18988;BME280;5494;51.796;10.952;2023-02-02T03:41:05;98818.94;;;5.59;85.71
18988;BME280;5494;51.796;10.952;2023-02-02T03:43:36;98840.28;;;5.09;87.32
18988;BME280;5494;51.796;10.952;2023-02-02T03:46:05;98839.81;;;4.97;90.22
18988;BME280;5494;51.796;10.952;2023-02-02T03:48:35;98816.75;;;4.92;91.02
18988;BME280;5494;51.796;10.952;2023-02-02T03:51:07;98831.19;;;4.98;91.93
18988;BME280;5494;51.796;10.952;2023-02-02T03:53:37;98850.97;;;4.97;92.53
18988;BME280;5494;51.796;10.952;2023-02-02T03:56:06;98851.41;;;4.82;93.88
18988;BME280;5494;51.796;10.952;2023-02-02T03:58:34;98867.59;;;4.86;93.34
18988;BME280;5494;51.796;10.952;2023-02-02T04:01:03;98847.78;;;4.89;92.98
18988;BME280;5494;51.796;10.952;2023-02-02T04:03:31;98847.16;;;4.81;93.57
18988;BME280;5494;51.796;10.952;2023-02-02T04:06:00;98869.41;;;4.84;93.93
18988;BME280;5494;51.796;10.952;2023-02-02T04:08:28;98871.25;;;4.79;94.67
18988;BME280;5494;51.796;10.952;2023-02-02T04:10:58;98861.53;;;4.88;93.91
18988;BME280;5494;51.796;10.952;2023-02-02T04:13:28;98858.34;;;4.80;94.09
18988;BME280;5494;51.796;10.952;2023-02-02T04:15:58;98867.34;;;4.95;94.88
18988;BME280;5494;51.796;10.952;2023-02-02T04:18:27;98866.63;;;4.90;93.24
18988;BME280;5494;51.796;10.952;2023-02-02T04:20:56;98875.69;;;4.73;94.64
18988;BME280;5494;51.796;10.952;2023-02-02T04:23:26;98889.25;;;4.79;94.33
18988;BME280;5494;51.796;10.952;2023-02-02T04:25:55;98891.13;;;4.73;95.00
18988;BME280;5494;51.796;10.952;2023-02-02T04:28:26;98880.13;;;4.68;94.84
18988;BME280;5494;51.796;10.952;2023-02-02T04:30:55;98889.34;;;4.77;94.50
18988;BME280;5494;51.796;10.952;2023-02-02T04:33:25;98898.19;;;4.67;94.54
18988;BME280;5494;51.796;10.952;2023-02-02T04:35:54;98880.13;;;4.68;94.88
18988;BME280;5494;51.796;10.952;2023-02-02T04:38:25;98878.63;;;4.61;94.74
18988;BME280;5494;51.796;10.952;2023-02-02T04:40:52;98899.22;;;4.61;94.87
18988;BME280;5494;51.796;10.952;2023-02-02T04:43:21;98894.91;;;4.62;95.23
18988;BME280;5494;51.796;10.952;2023-02-02T04:45:55;98900.91;;;4.62;95.19
18988;BME280;5494;51.796;10.952;2023-02-02T04:48:23;98875.41;;;4.53;95.71
18988;BME280;5494;51.796;10.952;2023-02-02T04:50:57;98904.53;;;4.55;95.97
18988;BME280;5494;51.796;10.952;2023-02-02T04:53:26;98894.13;;;4.58;95.58
18988;BME280;5494;51.796;10.952;2023-02-02T04:56:04;98903.66;;;4.56;96.13
18988;BME280;5494;51.796;10.952;2023-02-02T04:58:32;98904.41;;;4.60;96.31
18988;BME280;5494;51.796;10.952;2023-02-02T05:01:08;98908.84;;;4.55;96.83
18988;BME280;5494;51.796;10.952;2023-02-02T05:03:36;98914.94;;;4.51;97.89
18988;BME280;5494;51.796;10.952;2023-02-02T05:06:05;98914.03;;;4.53;97.92
18988;BME280;5494;51.796;10.952;2023-02-02T05:08:34;98921.69;;;4.56;97.12
18988;BME280;5494;51.796;10.952;2023-02-02T05:11:06;98917.31;;;4.58;97.17
18988;BME280;5494;51.796;10.952;2023-02-02T05:13:34;98936.84;;;4.65;97.08
18988;BME280;5494;51.796;10.952;2023-02-02T05:16:05;98938.47;;;4.69;96.79
18988;BME280;5494;51.796;10.952;2023-02-02T05:18:33;98931.66;;;4.67;97.14
18988;BME280;5494;51.796;10.952;2023-02-02T05:21:02;98932.41;;;4.70;96.42
18988;BME280;5494;51.796;10.952;2023-02-02T05:23:30;98936.56;;;4.76;96.54
18988;BME280;5494;51.796;10.952;2023-02-02T05:25:58;98933.81;;;4.82;96.21
18988;BME280;5494;51.796;10.952;2023-02-02T05:28:26;98946.47;;;4.90;96.76
18988;BME280;5494;51.796;10.952;2023-02-02T05:30:55;98943.94;;;4.88;97.65
18988;BME280;5494;51.796;10.952;2023-02-02T05:33:25;98948.25;;;4.88;97.63
18988;BME280;5494;51.796;10.952;2023-02-02T05:35:53;98960.13;;;4.92;98.13
18988;BME280;5494;51.796;10.952;2023-02-02T05:38:21;98963.44;;;4.97;98.22
18988;BME280;5494;51.796;10.952;2023-02-02T05:40:48;98975.50;;;4.95;98.74
18988;BME280;5494;51.796;10.952;2023-02-02T05:43:16;98976.38;;;4.94;99.32
18988;BME280;5494;51.796;10.952;2023-02-02T05:45:47;98970.31;;;4.96;99.69
18988;BME280;5494;51.796;10.952;2023-02-02T05:48:15;98950.75;;;4.91;99.58
18988;BME280;5494;51.796;10.952;2023-02-02T05:50:48;98966.22;;;4.89;100.00
18988;BME280;5494;51.796;10.952;2023-02-02T05:53:23;98964.41;;;4.93;100.00
18988;BME280;5494;51.796;10.952;2023-02-02T05:55:51;98973.22;;;4.84;100.00
18988;BME280;5494;51.796;10.952;2023-02-02T05:58:19;98973.34;;;4.80;100.00
18988;BME280;5494;51.796;10.952;2023-02-02T06:00:47;98976.72;;;4.83;100.00
18988;BME280;5494;51.796;10.952;2023-02-02T06:03:15;98980.22;;;4.79;100.00
18988;BME280;5494;51.796;10.952;2023-02-02T06:05:44;98949.22;;;4.84;100.00
18988;BME280;5494;51.796;10.952;2023-02-02T06:08:12;98981.72;;;4.88;99.50
18988;BME280;5494;51.796;10.952;2023-02-02T06:10:41;98978.22;;;4.90;99.08
18988;BME280;5494;51.796;10.952;2023-02-02T06:13:09;98980.84;;;4.89;99.92
18988;BME280;5494;51.796;10.952;2023-02-02T06:15:37;98979.06;;;4.91;100.00
18988;BME280;5494;51.796;10.952;2023-02-02T06:18:05;98965.38;;;4.89;99.32
18988;BME280;5494;51.796;10.952;2023-02-02T06:20:34;98988.44;;;4.93;98.76
18988;BME280;5494;51.796;10.952;2023-02-02T06:23:04;98989.44;;;4.88;99.42
18988;BME280;5494;51.796;10.952;2023-02-02T06:25:32;99000.50;;;4.91;100.00
18988;BME280;5494;51.796;10.952;2023-02-02T06:28:01;98990.63;;;4.76;100.00
18988;BME280;5494;51.796;10.952;2023-02-02T06:30:29;98996.63;;;4.77;99.74
18988;BME280;5494;51.796;10.952;2023-02-02T06:32:58;98993.91;;;4.81;99.20
18988;BME280;5494;51.796;10.952;2023-02-02T06:35:27;99012.97;;;4.75;99.18
18988;BME280;5494;51.796;10.952;2023-02-02T06:37:56;99014.69;;;4.75;99.60
18988;BME280;5494;51.796;10.952;2023-02-02T06:40:26;99014.91;;;4.66;99.90
18988;BME280;5494;51.796;10.952;2023-02-02T06:42:55;99001.69;;;4.80;99.46
18988;BME280;5494;51.796;10.952;2023-02-02T06:45:24;99024.03;;;4.78;100.00
18988;BME280;5494;51.796;10.952;2023-02-02T06:47:57;99014.41;;;4.84;99.56
18988;BME280;5494;51.796;10.952;2023-02-02T06:50:26;99024.69;;;4.86;99.34
18988;BME280;5494;51.796;10.952;2023-02-02T06:52:54;99019.56;;;4.84;99.17
18988;BME280;5494;51.796;10.952;2023-02-02T06:55:22;99018.59;;;4.90;99.14
18988;BME280;5494;51.796;10.952;2023-02-02T06:57:57;99025.31;;;4.94;98.78
18988;BME280;5494;51.796;10.952;2023-02-02T07:00:28;99020.19;;;4.94;98.81
18988;BME280;5494;51.796;10.952;2023-02-02T07:02:57;99021.84;;;4.96;98.62
18988;BME280;5494;51.796;10.952;2023-02-02T07:05:26;99031.47;;;4.90;98.80
18988;BME280;5494;51.796;10.952;2023-02-02T07:07:56;99009.69;;;5.00;98.89
18988;BME280;5494;51.796;10.952;2023-02-02T07:10:24;99025.25;;;4.97;98.49
18988;BME280;5494;51.796;10.952;2023-02-02T07:13:14;99026.25;;;4.91;99.43
18988;BME280;5494;51.796;10.952;2023-02-02T07:15:42;99044.16;;;4.96;98.92
18988;BME280;5494;51.796;10.952;2023-02-02T07:18:09;99045.75;;;5.00;99.03
18988;BME280;5494;51.796;10.952;2023-02-02T07:20:37;99053.28;;;5.07;98.87
18988;BME280;5494;51.796;10.952;2023-02-02T07:23:05;99041.22;;;5.09;98.90
18988;BME280;5494;51.796;10.952;2023-02-02T07:25:33;99060.19;;;5.05;99.66
18988;BME280;5494;51.796;10.952;2023-02-02T07:28:01;99056.56;;;5.12;99.90
18988;BME280;5494;51.796;10.952;2023-02-02T07:30:31;99061.00;;;5.07;100.00
18988;BME280;5494;51.796;10.952;2023-02-02T07:32:59;99071.25;;;5.10;100.00
18988;BME280;5494;51.796;10.952;2023-02-02T07:35:27;99074.72;;;5.09;100.00
18988;BME280;5494;51.796;10.952;2023-02-02T07:37:55;99064.38;;;5.11;100.00
18988;BME280;5494;51.796;10.952;2023-02-02T07:40:23;99078.03;;;5.13;100.00
18988;BME280;5494;51.796;10.952;2023-02-02T07:42:51;99078.78;;;5.18;100.00
18988;BME280;5494;51.796;10.952;2023-02-02T07:45:19;99078.72;;;5.20;99.96
18988;BME280;5494;51.796;10.952;2023-02-02T07:47:59;99089.81;;;5.22;100.00
18988;BME280;5494;51.796;10.952;2023-02-02T07:50:28;99088.22;;;5.18;100.00
18988;BME280;5494;51.796;10.952;2023-02-02T07:52:58;99088.94;;;5.23;100.00
18988;BME280;5494;51.796;10.952;2023-02-02T07:55:26;99096.53;;;5.27;100.00
18988;BME280;5494;51.796;10.952;2023-02-02T07:57:54;99097.34;;;5.29;100.00
18988;BME280;5494;51.796;10.952;2023-02-02T08:00:25;99100.84;;;5.27;100.00
18988;BME280;5494;51.796;10.952;2023-02-02T08:02:53;99104.28;;;5.27;100.00
18988;BME280;5494;51.796;10.952;2023-02-02T08:05:23;99100.59;;;5.36;100.00
18988;BME280;5494;51.796;10.952;2023-02-02T08:07:51;99099.50;;;5.44;100.00
18988;BME280;5494;51.796;10.952;2023-02-02T08:10:19;99101.13;;;5.47;100.00
18988;BME280;5494;51.796;10.952;2023-02-02T08:12:47;99111.41;;;5.48;100.00
18988;BME280;5494;51.796;10.952;2023-02-02T08:15:15;99110.34;;;5.55;98.32
18988;BME280;5494;51.796;10.952;2023-02-02T08:17:44;99115.16;;;5.68;98.13
18988;BME280;5494;51.796;10.952;2023-02-02T08:20:15;99116.84;;;5.69;97.25
18988;BME280;5494;51.796;10.952;2023-02-02T08:22:44;99116.94;;;5.95;97.35
18988;BME280;5494;51.796;10.952;2023-02-02T08:25:13;99119.97;;;5.80;96.30
18988;BME280;5494;51.796;10.952;2023-02-02T08:27:41;99122.88;;;5.68;96.74
18988;BME280;5494;51.796;10.952;2023-02-02T08:30:11;99131.44;;;5.70;97.53
18988;BME280;5494;51.796;10.952;2023-02-02T08:32:39;99131.63;;;5.95;97.18
18988;BME280;5494;51.796;10.952;2023-02-02T08:35:07;99124.56;;;5.69;97.80
18988;BME280;5494;51.796;10.952;2023-02-02T08:37:35;99139.09;;;5.73;98.16
18988;BME280;5494;51.796;10.952;2023-02-02T08:40:07;99143.50;;;5.68;98.94
18988;BME280;5494;51.796;10.952;2023-02-02T08:42:36;99134.94;;;5.67;98.96
18988;BME280;5494;51.796;10.952;2023-02-02T08:45:05;99141.00;;;5.66;99.38
18988;BME280;5494;51.796;10.952;2023-02-02T08:47:53;99134.16;;;5.65;100.00
18988;BME280;5494;51.796;10.952;2023-02-02T08:50:36;99132.19;;;5.73;99.80
18988;BME280;5494;51.796;10.952;2023-02-02T08:53:04;99141.38;;;5.82;99.52
18988;BME280;5494;51.796;10.952;2023-02-02T08:55:34;99142.94;;;5.89;98.88
18988;BME280;5494;51.796;10.952;2023-02-02T08:58:02;99153.91;;;5.96;99.14
18988;BME280;5494;51.796;10.952;2023-02-02T09:00:30;99142.03;;;5.90;99.44
18988;BME280;5494;51.796;10.952;2023-02-02T09:02:58;99160.69;;;6.00;99.77
18988;BME280;5494;51.796;10.952;2023-02-02T09:05:26;99153.91;;;5.96;100.00
18988;BME280;5494;51.796;10.952;2023-02-02T09:07:55;99154.00;;;5.94;100.00
18988;BME280;5494;51.796;10.952;2023-02-02T09:10:23;99152.09;;;5.99;98.88
18988;BME280;5494;51.796;10.952;2023-02-02T09:12:52;99157.03;;;6.07;98.53
18988;BME280;5494;51.796;10.952;2023-02-02T09:15:20;99164.88;;;6.04;98.39
18988;BME280;5494;51.796;10.952;2023-02-02T09:17:49;99147.69;;;6.03;97.33
18988;BME280;5494;51.796;10.952;2023-02-02T09:20:17;99165.56;;;6.09;97.70
18988;BME280;5494;51.796;10.952;2023-02-02T09:22:47;99157.78;;;6.10;96.55
18988;BME280;5494;51.796;10.952;2023-02-02T09:25:15;99163.78;;;6.11;96.63
18988;BME280;5494;51.796;10.952;2023-02-02T09:27:43;99171.31;;;6.18;95.80
18988;BME280;5494;51.796;10.952;2023-02-02T09:30:13;99166.84;;;6.23;95.82
18988;BME280;5494;51.796;10.952;2023-02-02T09:32:41;99169.34;;;6.26;95.50
18988;BME280;5494;51.796;10.952;2023-02-02T09:35:12;99182.91;;;6.33;95.44
18988;BME280;5494;51.796;10.952;2023-02-02T09:37:40;99180.06;;;6.42;94.85
18988;BME280;5494;51.796;10.952;2023-02-02T09:40:15;99173.66;;;6.54;94.93
18988;BME280;5494;51.796;10.952;2023-02-02T09:43:05;99188.28;;;6.81;93.31
18988;BME280;5494;51.796;10.952;2023-02-02T09:45:46;99184.97;;;6.78;93.25
18988;BME280;5494;51.796;10.952;2023-02-02T09:48:28;99184.38;;;6.69;92.24
18988;BME280;5494;51.796;10.952;2023-02-02T09:51:11;99199.63;;;6.77;92.71
18988;BME280;5494;51.796;10.952;2023-02-02T09:53:46;99194.38;;;6.79;92.48
18988;BME280;5494;51.796;10.952;2023-02-02T09:56:26;99194.00;;;6.91;92.85
18988;BME280;5494;51.796;10.952;2023-02-02T09:59:00;99199.81;;;6.97;92.62
18988;BME280;5494;51.796;10.952;2023-02-02T10:01:52;99191.16;;;6.98;91.35
18988;BME280;5494;51.796;10.952;2023-02-02T10:04:30;99199.81;;;6.97;91.71
18988;BME280;5494;51.796;10.952;2023-02-02T10:07:07;99200.97;;;6.89;91.38
18988;BME280;5494;51.796;10.952;2023-02-02T10:09:44;99210.16;;;6.97;91.01
18988;BME280;5494;51.796;10.952;2023-02-02T10:12:27;99208.06;;;7.08;90.69
18988;BME280;5494;51.796;10.952;2023-02-02T10:15:03;99202.69;;;7.15;90.66
18988;BME280;5494;51.796;10.952;2023-02-02T10:17:46;99201.75;;;7.17;90.86
18988;BME280;5494;51.796;10.952;2023-02-02T10:20:29;99211.06;;;7.21;90.80
18988;BME280;5494;51.796;10.952;2023-02-02T10:23:12;99217.47;;;7.61;89.99
18988;BME280;5494;51.796;10.952;2023-02-02T10:25:55;99211.03;;;7.72;88.19
18988;BME280;5494;51.796;10.952;2023-02-02T10:28:41;99213.53;;;8.22;86.19
18988;BME280;5494;51.796;10.952;2023-02-02T10:31:27;99220.16;;;8.52;83.14
18988;BME280;5494;51.796;10.952;2023-02-02T10:34:12;99230.34;;;8.35;83.55
18988;BME280;5494;51.796;10.952;2023-02-02T10:36:57;99226.25;;;8.51;82.97
18988;BME280;5494;51.796;10.952;2023-02-02T10:39:45;99219.06;;;8.58;82.07
18988;BME280;5494;51.796;10.952;2023-02-02T10:42:31;99235.66;;;8.30;82.34
18988;BME280;5494;51.796;10.952;2023-02-02T10:45:10;99230.91;;;8.18;82.84
18988;BME280;5494;51.796;10.952;2023-02-02T10:47:41;99248.66;;;8.06;84.25
18988;BME280;5494;51.796;10.952;2023-02-02T10:50:17;99232.03;;;8.11;83.84
18988;BME280;5494;51.796;10.952;2023-02-02T10:52:48;99240.09;;;8.04;84.20
18988;BME280;5494;51.796;10.952;2023-02-02T10:55:31;99235.78;;;8.27;83.55
18988;BME280;5494;51.796;10.952;2023-02-02T10:58:19;99245.50;;;8.67;82.68
18988;BME280;5494;51.796;10.952;2023-02-02T11:00:52;99227.16;;;8.72;78.71
18988;BME280;5494;51.796;10.952;2023-02-02T11:03:26;99238.72;;;8.85;77.60
18988;BME280;5494;51.796;10.952;2023-02-02T11:05:59;99241.81;;;8.95;76.72
18988;BME280;5494;51.796;10.952;2023-02-02T11:08:49;99256.09;;;8.61;78.33
18988;BME280;5494;51.796;10.952;2023-02-02T11:11:25;99253.50;;;8.61;78.84
18988;BME280;5494;51.796;10.952;2023-02-02T11:14:00;99241.34;;;8.63;78.85
18988;BME280;5494;51.796;10.952;2023-02-02T11:16:31;99258.25;;;8.50;78.39
18988;BME280;5494;51.796;10.952;2023-02-02T11:19:27;99254.59;;;8.56;79.40
18988;BME280;5494;51.796;10.952;2023-02-02T11:21:59;99259.72;;;8.34;78.95
18988;BME280;5494;51.796;10.952;2023-02-02T11:24:29;99265.06;;;8.29;80.63
18988;BME280;5494;51.796;10.952;2023-02-02T11:27:06;99266.59;;;8.35;80.54
18988;BME280;5494;51.796;10.952;2023-02-02T11:29:44;99279.31;;;8.41;80.73
18988;BME280;5494;51.796;10.952;2023-02-02T11:32:22;99279.19;;;8.44;78.51
18988;BME280;5494;51.796;10.952;2023-02-02T11:35:21;99271.22;;;8.25;78.76
18988;BME280;5494;51.796;10.952;2023-02-02T11:38:08;99293.34;;;8.36;80.50
18988;BME280;5494;51.796;10.952;2023-02-02T11:40:39;99279.00;;;8.25;78.40
18988;BME280;5494;51.796;10.952;2023-02-02T11:43:17;99285.34;;;8.17;79.37
18988;BME280;5494;51.796;10.952;2023-02-02T11:45:53;99285.03;;;8.26;79.97
18988;BME280;5494;51.796;10.952;2023-02-02T11:48:29;99288.78;;;7.94;80.86
18988;BME280;5494;51.796;10.952;2023-02-02T11:50:59;99279.13;;;7.98;81.05
18988;BME280;5494;51.796;10.952;2023-02-02T11:53:32;99287.56;;;8.03;79.58
18988;BME280;5494;51.796;10.952;2023-02-02T11:56:06;99299.41;;;8.10;79.39
18988;BME280;5494;51.796;10.952;2023-02-02T11:58:44;99294.13;;;8.13;80.34
18988;BME280;5494;51.796;10.952;2023-02-02T12:01:24;99280.28;;;8.14;77.28
18988;BME280;5494;51.796;10.952;2023-02-02T12:03:54;99290.31;;;8.23;76.71
18988;BME280;5494;51.796;10.952;2023-02-02T12:06:25;99272.41;;;8.17;77.91
18988;BME280;5494;51.796;10.952;2023-02-02T12:08:59;99267.50;;;8.09;76.95
18988;BME280;5494;51.796;10.952;2023-02-02T12:11:39;99268.47;;;8.07;77.10
18988;BME280;5494;51.796;10.952;2023-02-02T12:14:28;99267.88;;;7.99;77.17
18988;BME280;5494;51.796;10.952;2023-02-02T12:17:13;99266.47;;;7.65;77.52
18988;BME280;5494;51.796;10.952;2023-02-02T12:20:02;99268.00;;;7.46;78.05
18988;BME280;5494;51.796;10.952;2023-02-02T12:22:54;99275.81;;;7.44;79.08
18988;BME280;5494;51.796;10.952;2023-02-02T12:26:17;99275.16;;;7.38;79.49
18988;BME280;5494;51.796;10.952;2023-02-02T12:29:12;99289.56;;;7.46;79.62
18988;BME280;5494;51.796;10.952;2023-02-02T12:32:21;99291.41;;;7.41;77.75
18988;BME280;5494;51.796;10.952;2023-02-02T12:35:29;99287.53;;;7.55;79.25
18988;BME280;5494;51.796;10.952;2023-02-02T12:38:16;99282.84;;;7.66;77.88
18988;BME280;5494;51.796;10.952;2023-02-02T12:41:11;99295.38;;;7.53;78.89
18988;BME280;5494;51.796;10.952;2023-02-02T12:43:47;99290.19;;;7.53;80.77
18988;BME280;5494;51.796;10.952;2023-02-02T12:46:46;99295.19;;;7.58;81.47
18988;BME280;5494;51.796;10.952;2023-02-02T12:49:36;99293.72;;;7.75;81.20
18988;BME280;5494;51.796;10.952;2023-02-02T12:52:24;99304.19;;;7.97;79.51
18988;BME280;5494;51.796;10.952;2023-02-02T12:55:13;99299.75;;;8.01;76.68
18988;BME280;5494;51.796;10.952;2023-02-02T12:58:00;99307.03;;;7.89;76.50
18988;BME280;5494;51.796;10.952;2023-02-02T13:00:52;99326.38;;;7.79;79.05
18988;BME280;5494;51.796;10.952;2023-02-02T13:03:43;99330.06;;;7.97;79.36
18988;BME280;5494;51.796;10.952;2023-02-02T13:06:55;99322.09;;;7.78;79.71
18988;BME280;5494;51.796;10.952;2023-02-02T13:09:38;99328.78;;;7.84;78.73
18988;BME280;5494;51.796;10.952;2023-02-02T13:12:10;99336.59;;;7.58;80.07
18988;BME280;5494;51.796;10.952;2023-02-02T13:14:44;99326.25;;;7.58;80.91
18988;BME280;5494;51.796;10.952;2023-02-02T13:17:22;99338.00;;;7.40;79.53
18988;BME280;5494;51.796;10.952;2023-02-02T13:19:59;99333.16;;;7.31;81.10
18988;BME280;5494;51.796;10.952;2023-02-02T13:22:35;99336.59;;;7.31;81.52
18988;BME280;5494;51.796;10.952;2023-02-02T13:25:08;99344.03;;;7.40;81.78
18988;BME280;5494;51.796;10.952;2023-02-02T13:27:44;99348.06;;;7.49;82.09
18988;BME280;5494;51.796;10.952;2023-02-02T13:30:27;99338.97;;;7.64;82.74
18988;BME280;5494;51.796;10.952;2023-02-02T13:33:01;99350.75;;;7.72;81.27
18988;BME280;5494;51.796;10.952;2023-02-02T13:35:38;99357.09;;;7.88;80.33
18988;BME280;5494;51.796;10.952;2023-02-02T13:38:18;99361.28;;;7.93;80.17
18988;BME280;5494;51.796;10.952;2023-02-02T13:40:50;99361.53;;;7.85;79.53
18988;BME280;5494;51.796;10.952;2023-02-02T13:43:44;99365.44;;;7.72;79.77
18988;BME280;5494;51.796;10.952;2023-02-02T13:46:28;99364.84;;;7.37;81.12
18988;BME280;5494;51.796;10.952;2023-02-02T13:49:07;99360.13;;;7.22;81.88
18988;BME280;5494;51.796;10.952;2023-02-02T13:51:50;99353.69;;;7.07;83.74